createdAt,value
2023-03-05T00:03:05.862Z,2.66
2023-03-05T00:13:08.067Z,2.85
2023-03-05T00:23:10.208Z,3.27
2023-03-05T00:33:13.230Z,2.17
2023-03-05T00:43:15.361Z,3.01
2023-03-05T00:53:17.821Z,2.89
2023-03-05T01:03:20.098Z,1.38
2023-03-05T01:13:24.174Z,2.60
2023-03-05T01:23:26.666Z,2.49
2023-03-05T01:33:28.746Z,2.41
2023-03-05T01:43:31.141Z,2.16
2023-03-05T01:53:33.432Z,2.85
2023-03-05T02:03:36.728Z,1.95
2023-03-05T02:13:40.685Z,1.77
2023-03-05T02:23:42.753Z,2.41
2023-03-05T02:33:45.635Z,2.26
2023-03-05T02:43:48.530Z,2.80
2023-03-05T02:53:50.886Z,2.36
2023-03-05T03:03:54.338Z,1.79
2023-03-05T03:13:56.503Z,2.30
2023-03-05T03:23:58.549Z,1.70
2023-03-05T03:34:00.703Z,1.44
2023-03-05T03:44:04.759Z,1.95
2023-03-05T03:54:06.809Z,2.31
2023-03-05T04:04:11.119Z,2.23
2023-03-05T04:14:13.228Z,1.87
2023-03-05T04:24:15.334Z,2.45
2023-03-05T04:34:17.380Z,2.34
2023-03-05T04:44:19.606Z,2.62
2023-03-05T04:54:22.316Z,1.40
2023-03-05T05:04:24.353Z,1.08
2023-03-05T05:14:26.420Z,1.93
2023-03-05T05:24:28.485Z,0.95
2023-03-05T05:34:30.537Z,1.77
2023-03-05T05:44:34.833Z,1.73
2023-03-05T05:54:37.034Z,1.79
2023-03-05T06:04:40.200Z,1.87
2023-03-05T06:14:42.343Z,2.00
2023-03-05T06:24:44.399Z,1.38
2023-03-05T06:34:46.571Z,1.56
2023-03-05T06:44:48.753Z,1.45
2023-03-05T06:54:51.171Z,1.52
2023-03-05T07:04:53.208Z,1.59
2023-03-05T07:14:55.524Z,1.62
2023-03-05T07:24:57.605Z,1.46
2023-03-05T07:34:59.761Z,2.15
2023-03-05T07:45:01.976Z,2.18
2023-03-05T07:55:04.275Z,2.50
2023-03-05T08:05:06.745Z,2.52
2023-03-05T08:15:09.226Z,1.46
2023-03-05T08:25:11.901Z,2.50
2023-03-05T08:35:14.046Z,2.44
2023-03-05T08:45:16.299Z,2.12
2023-03-05T08:55:18.389Z,2.15
2023-03-05T09:05:20.555Z,2.32
2023-03-05T09:15:23.221Z,2.42
2023-03-05T09:25:25.408Z,2.20
2023-03-05T09:35:27.964Z,2.61
2023-03-05T09:45:58.492Z,1.94
2023-03-05T09:56:04.643Z,2.80
2023-03-05T10:06:15.573Z,2.12
2023-03-05T10:16:58.610Z,3.39
2023-03-05T10:27:34.217Z,2.38
2023-03-05T10:37:56.926Z,2.89
2023-03-05T10:48:07.765Z,2.85
2023-03-05T10:58:14.504Z,3.05
2023-03-05T11:08:19.570Z,2.86
2023-03-05T11:18:24.021Z,3.48
2023-03-05T11:28:33.364Z,3.38
2023-03-05T11:38:46.538Z,3.32
2023-03-05T11:48:49.180Z,3.44
2023-03-05T11:59:02.024Z,3.70
2023-03-05T12:09:30.421Z,3.21
2023-03-05T12:19:48.621Z,3.99
2023-03-05T12:29:54.379Z,2.20
2023-03-05T12:40:00.959Z,3.07
2023-03-05T12:50:04.617Z,3.45
2023-03-05T13:00:21.397Z,3.76
2023-03-05T13:10:28.973Z,3.18
2023-03-05T13:20:39.665Z,4.54
2023-03-05T13:30:51.696Z,4.64
2023-03-05T13:41:05.225Z,4.80
2023-03-05T13:51:09.499Z,4.58
2023-03-05T14:01:32.847Z,4.26
2023-03-05T14:11:35.750Z,4.37
2023-03-05T14:21:49.408Z,4.79
2023-03-05T14:31:59.588Z,4.68
2023-03-05T14:42:24.420Z,4.61
2023-03-05T14:52:28.180Z,4.82
2023-03-05T15:02:30.498Z,4.37
2023-03-05T15:12:32.756Z,4.61
2023-03-05T15:22:35.059Z,4.38
2023-03-05T15:32:37.341Z,4.66
2023-03-05T15:42:40.102Z,3.99
2023-03-05T15:52:42.743Z,4.51
2023-03-05T16:02:46.268Z,4.27
2023-03-05T16:12:51.465Z,3.64
2023-03-05T16:22:53.721Z,4.31
2023-03-05T16:32:56.174Z,3.90
2023-03-05T16:42:58.481Z,3.37
2023-03-05T16:53:00.735Z,4.22
2023-03-05T17:03:04.019Z,2.96
2023-03-05T17:13:06.218Z,2.84
2023-03-05T17:23:08.642Z,3.19
2023-03-05T17:33:11.898Z,3.17
2023-03-05T17:43:14.295Z,2.90
2023-03-05T17:53:16.626Z,3.33
2023-03-05T18:03:18.748Z,3.06
2023-03-05T18:13:20.913Z,3.12
2023-03-05T18:23:23.089Z,2.91
2023-03-05T18:33:25.429Z,3.25
2023-03-05T18:43:27.910Z,2.89
2023-03-05T18:53:30.407Z,3.28
2023-03-05T19:03:33.146Z,3.44
2023-03-05T19:13:48.672Z,2.66
2023-03-05T19:23:50.797Z,2.78
2023-03-05T19:33:54.273Z,2.27
2023-03-05T19:43:56.462Z,1.66
2023-03-05T19:53:58.752Z,1.18
2023-03-05T20:04:02.843Z,1.42
2023-03-05T20:14:05.012Z,1.61
2023-03-05T20:24:10.715Z,1.22
2023-03-05T20:34:15.400Z,1.72
2023-03-05T20:44:17.496Z,1.34
2023-03-05T20:54:20.015Z,1.95
2023-03-05T21:04:22.153Z,2.07
2023-03-05T21:14:24.422Z,1.36
2023-03-05T21:24:32.727Z,1.25
2023-03-05T21:34:34.933Z,0.76
2023-03-05T21:44:37.364Z,1.01
2023-03-05T21:54:40.075Z,1.47
2023-03-05T22:04:42.435Z,1.53
2023-03-05T22:14:44.598Z,1.53
2023-03-05T22:24:46.745Z,2.15
2023-03-05T22:34:48.855Z,2.08
2023-03-05T22:44:56.322Z,2.18
2023-03-05T22:54:58.482Z,2.05
2023-03-05T23:05:00.607Z,1.69
2023-03-05T23:15:06.312Z,1.92
2023-03-05T23:25:08.718Z,2.08
2023-03-05T23:35:12.338Z,1.58
2023-03-05T23:45:16.900Z,1.89
2023-03-05T23:55:31.457Z,1.92
